sensor_id;sensor_type;location;lat;lon;timestamp;pressure;altitude;pressure_sealevel;temperature;humidity
54628;BME280;40525;55.926;21.066;2022-12-07T14:55:59;99795.31;;;2.20;100.00
54628;BME280;40525;55.926;21.066;2022-12-07T14:58:26;99789.30;;;2.18;100.00
54628;BME280;40525;55.926;21.066;2022-12-07T15:00:52;99793.00;;;2.25;100.00
54628;BME280;40525;55.926;21.066;2022-12-07T15:03:19;99792.83;;;2.31;100.00
54628;BME280;40525;55.926;21.066;2022-12-07T15:05:45;99783.59;;;2.38;100.00
54628;BME280;40525;55.926;21.066;2022-12-07T15:08:12;99790.76;;;2.44;100.00
54628;BME280;40525;55.926;21.066;2022-12-07T15:10:39;99787.14;;;2.50;100.00
54628;BME280;40525;55.926;21.066;2022-12-07T15:13:07;99779.16;;;2.56;100.00
54628;BME280;40525;55.926;21.066;2022-12-07T15:15:53;99780.80;;;2.60;100.00
54628;BME280;40525;55.926;21.066;2022-12-07T15:18:21;99780.62;;;2.66;100.00
54628;BME280;40525;55.926;21.066;2022-12-07T15:20:49;99776.14;;;2.71;100.00
54628;BME280;40525;55.926;21.066;2022-12-07T15:23:17;99777.22;;;2.79;100.00
54628;BME280;40525;55.926;21.066;2022-12-07T15:25:46;99779.67;;;2.84;100.00
54628;BME280;40525;55.926;21.066;2022-12-07T15:28:14;99782.55;;;2.89;100.00
54628;BME280;40525;55.926;21.066;2022-12-07T15:30:41;99779.37;;;2.95;100.00
54628;BME280;40525;55.926;21.066;2022-12-07T15:33:09;99780.14;;;2.98;100.00
54628;BME280;40525;55.926;21.066;2022-12-07T15:35:41;99773.52;;;3.01;100.00
54628;BME280;40525;55.926;21.066;2022-12-07T15:38:09;99772.09;;;3.06;100.00
54628;BME280;40525;55.926;21.066;2022-12-07T15:40:37;99775.05;;;3.08;100.00
54628;BME280;40525;55.926;21.066;2022-12-07T15:43:04;99776.27;;;3.11;100.00
54628;BME280;40525;55.926;21.066;2022-12-07T15:45:32;99768.84;;;3.12;100.00
54628;BME280;40525;55.926;21.066;2022-12-07T15:47:59;99762.70;;;3.15;100.00
54628;BME280;40525;55.926;21.066;2022-12-07T15:50:25;99754.43;;;3.16;100.00
54628;BME280;40525;55.926;21.066;2022-12-07T15:52:52;99762.59;;;3.18;100.00
54628;BME280;40525;55.926;21.066;2022-12-07T15:55:19;99756.53;;;3.18;100.00
54628;BME280;40525;55.926;21.066;2022-12-07T15:57:45;99765.16;;;3.20;100.00
54628;BME280;40525;55.926;21.066;2022-12-07T16:00:13;99765.95;;;3.22;100.00
54628;BME280;40525;55.926;21.066;2022-12-07T16:02:41;99769.02;;;3.21;100.00
54628;BME280;40525;55.926;21.066;2022-12-07T16:05:08;99762.05;;;3.22;100.00
54628;BME280;40525;55.926;21.066;2022-12-07T16:07:34;99765.45;;;3.24;100.00
54628;BME280;40525;55.926;21.066;2022-12-07T16:10:01;99760.70;;;3.23;100.00
54628;BME280;40525;55.926;21.066;2022-12-07T16:12:28;99765.95;;;3.22;100.00
54628;BME280;40525;55.926;21.066;2022-12-07T16:14:54;99762.85;;;3.24;100.00
54628;BME280;40525;55.926;21.066;2022-12-07T16:17:21;99760.28;;;3.22;100.00
54628;BME280;40525;55.926;21.066;2022-12-07T16:19:47;99756.30;;;3.25;100.00
54628;BME280;40525;55.926;21.066;2022-12-07T16:22:14;99756.59;;;3.29;100.00
54628;BME280;40525;55.926;21.066;2022-12-07T16:24:40;99753.15;;;3.29;100.00
54628;BME280;40525;55.926;21.066;2022-12-07T16:27:07;99744.41;;;3.30;100.00
54628;BME280;40525;55.926;21.066;2022-12-07T16:29:33;99742.23;;;3.31;100.00
54628;BME280;40525;55.926;21.066;2022-12-07T16:32:00;99745.63;;;3.33;100.00
54628;BME280;40525;55.926;21.066;2022-12-07T16:34:27;99741.27;;;3.33;100.00
54628;BME280;40525;55.926;21.066;2022-12-07T16:36:53;99746.39;;;3.37;100.00
54628;BME280;40525;55.926;21.066;2022-12-07T16:39:20;99748.66;;;3.34;100.00
54628;BME280;40525;55.926;21.066;2022-12-07T16:41:46;99735.75;;;3.29;100.00
54628;BME280;40525;55.926;21.066;2022-12-07T16:44:13;99735.37;;;3.28;100.00
54628;BME280;40525;55.926;21.066;2022-12-07T16:46:40;99730.66;;;3.26;100.00
54628;BME280;40525;55.926;21.066;2022-12-07T16:49:13;99732.00;;;3.25;100.00
54628;BME280;40525;55.926;21.066;2022-12-07T16:51:40;99728.90;;;3.27;100.00
54628;BME280;40525;55.926;21.066;2022-12-07T16:54:11;99722.09;;;3.23;100.00
54628;BME280;40525;55.926;21.066;2022-12-07T16:56:39;99724.19;;;3.25;100.00
54628;BME280;40525;55.926;21.066;2022-12-07T16:59:06;99712.85;;;3.26;100.00
54628;BME280;40525;55.926;21.066;2022-12-07T17:01:32;99715.95;;;3.24;100.00
54628;BME280;40525;55.926;21.066;2022-12-07T17:04:00;99701.59;;;3.25;100.00
54628;BME280;40525;55.926;21.066;2022-12-07T17:06:28;99699.32;;;3.28;100.00
54628;BME280;40525;55.926;21.066;2022-12-07T17:08:57;99702.14;;;3.35;100.00
54628;BME280;40525;55.926;21.066;2022-12-07T17:11:26;99692.05;;;3.38;100.00
54628;BME280;40525;55.926;21.066;2022-12-07T17:13:54;99689.91;;;3.37;100.00
54628;BME280;40525;55.926;21.066;2022-12-07T17:16:39;99698.14;;;3.38;100.00
54628;BME280;40525;55.926;21.066;2022-12-07T17:19:07;99700.62;;;3.28;100.00
54628;BME280;40525;55.926;21.066;2022-12-07T17:21:35;99697.84;;;3.21;100.00
54628;BME280;40525;55.926;21.066;2022-12-07T17:24:05;99693.17;;;3.17;100.00
54628;BME280;40525;55.926;21.066;2022-12-07T17:26:34;99696.58;;;3.19;100.00
54628;BME280;40525;55.926;21.066;2022-12-07T17:29:01;99699.02;;;3.24;100.00
54628;BME280;40525;55.926;21.066;2022-12-07T17:31:28;99702.97;;;3.22;100.00
54628;BME280;40525;55.926;21.066;2022-12-07T17:33:58;99698.31;;;3.19;100.00
54628;BME280;40525;55.926;21.066;2022-12-07T17:36:26;99696.92;;;3.22;100.00
54628;BME280;40525;55.926;21.066;2022-12-07T17:38:55;99697.72;;;3.24;100.00
54628;BME280;40525;55.926;21.066;2022-12-07T17:41:25;99695.53;;;3.25;100.00
54628;BME280;40525;55.926;21.066;2022-12-07T17:44:14;99692.01;;;3.26;100.00
54628;BME280;40525;55.926;21.066;2022-12-07T17:46:43;99685.41;;;3.29;100.00
54628;BME280;40525;55.926;21.066;2022-12-07T17:49:11;99684.31;;;3.23;100.00
54628;BME280;40525;55.926;21.066;2022-12-07T17:51:37;99681.25;;;3.23;100.00
54628;BME280;40525;55.926;21.066;2022-12-07T17:54:22;99683.69;;;3.28;100.00
54628;BME280;40525;55.926;21.066;2022-12-07T17:56:49;99672.77;;;3.30;100.00
54628;BME280;40525;55.926;21.066;2022-12-07T17:59:16;99674.48;;;3.31;100.00
54628;BME280;40525;55.926;21.066;2022-12-07T18:01:44;99675.88;;;3.28;100.00
54628;BME280;40525;55.926;21.066;2022-12-07T18:04:11;99669.82;;;3.27;100.00
54628;BME280;40525;55.926;21.066;2022-12-07T18:06:38;99675.38;;;3.30;100.00
54628;BME280;40525;55.926;21.066;2022-12-07T18:09:05;99672.88;;;3.40;100.00
54628;BME280;40525;55.926;21.066;2022-12-07T18:11:32;99664.52;;;3.44;100.00
54628;BME280;40525;55.926;21.066;2022-12-07T18:13:59;99666.25;;;3.43;100.00
54628;BME280;40525;55.926;21.066;2022-12-07T18:16:27;99661.54;;;3.41;100.00
54628;BME280;40525;55.926;21.066;2022-12-07T18:19:00;99660.23;;;3.41;100.00
54628;BME280;40525;55.926;21.066;2022-12-07T18:21:28;99663.34;;;3.39;100.00
54628;BME280;40525;55.926;21.066;2022-12-07T18:23:58;99665.86;;;3.42;100.00
54628;BME280;40525;55.926;21.066;2022-12-07T18:26:29;99663.09;;;3.47;100.00
54628;BME280;40525;55.926;21.066;2022-12-07T18:28:59;99657.63;;;3.41;100.00
54628;BME280;40525;55.926;21.066;2022-12-07T18:31:26;99647.72;;;3.39;100.00
54628;BME280;40525;55.926;21.066;2022-12-07T18:33:53;99645.02;;;3.42;100.00
54628;BME280;40525;55.926;21.066;2022-12-07T18:36:22;99652.83;;;3.42;100.00
54628;BME280;40525;55.926;21.066;2022-12-07T18:38:49;99651.91;;;3.43;100.00
54628;BME280;40525;55.926;21.066;2022-12-07T18:41:16;99646.27;;;3.44;100.00
54628;BME280;40525;55.926;21.066;2022-12-07T18:43:43;99644.00;;;3.46;100.00
54628;BME280;40525;55.926;21.066;2022-12-07T18:46:15;99646.66;;;3.45;100.00
54628;BME280;40525;55.926;21.066;2022-12-07T18:48:44;99640.19;;;3.43;100.00
54628;BME280;40525;55.926;21.066;2022-12-07T18:51:13;99642.50;;;3.39;100.00
54628;BME280;40525;55.926;21.066;2022-12-07T18:53:41;99643.84;;;3.38;100.00
54628;BME280;40525;55.926;21.066;2022-12-07T18:56:10;99643.30;;;3.41;100.00
54628;BME280;40525;55.926;21.066;2022-12-07T18:58:48;99637.58;;;3.43;100.00
54628;BME280;40525;55.926;21.066;2022-12-07T19:01:34;99639.39;;;3.41;100.00
54628;BME280;40525;55.926;21.066;2022-12-07T19:04:01;99628.88;;;3.44;100.00
54628;BME280;40525;55.926;21.066;2022-12-07T19:06:28;99620.97;;;3.47;100.00
54628;BME280;40525;55.926;21.066;2022-12-07T19:08:55;99623.11;;;3.48;100.00
54628;BME280;40525;55.926;21.066;2022-12-07T19:11:30;99620.55;;;3.46;100.00
54628;BME280;40525;55.926;21.066;2022-12-07T19:14:31;99620.45;;;3.49;100.00
54628;BME280;40525;55.926;21.066;2022-12-07T19:17:04;99620.55;;;3.46;100.00
54628;BME280;40525;55.926;21.066;2022-12-07T19:19:37;99609.93;;;3.39;100.00
54628;BME280;40525;55.926;21.066;2022-12-07T19:22:11;99613.50;;;3.37;100.00
54628;BME280;40525;55.926;21.066;2022-12-07T19:24:40;99610.56;;;3.34;100.00
54628;BME280;40525;55.926;21.066;2022-12-07T19:27:07;99609.77;;;3.32;100.00
54628;BME280;40525;55.926;21.066;2022-12-07T19:29:34;99606.28;;;3.31;100.00
54628;BME280;40525;55.926;21.066;2022-12-07T19:32:02;99606.75;;;3.31;100.00
54628;BME280;40525;55.926;21.066;2022-12-07T19:34:29;99609.26;;;3.34;100.00
54628;BME280;40525;55.926;21.066;2022-12-07T19:36:56;99603.13;;;3.35;100.00
54628;BME280;40525;55.926;21.066;2022-12-07T19:39:23;99601.78;;;3.37;100.00
54628;BME280;40525;55.926;21.066;2022-12-07T19:41:49;99595.27;;;3.37;100.00
54628;BME280;40525;55.926;21.066;2022-12-07T19:44:18;99602.79;;;3.32;100.00
54628;BME280;40525;55.926;21.066;2022-12-07T19:46:48;99602.79;;;3.32;100.00
54628;BME280;40525;55.926;21.066;2022-12-07T19:49:17;99598.33;;;3.36;100.00
54628;BME280;40525;55.926;21.066;2022-12-07T19:51:50;99596.56;;;3.37;100.00
54628;BME280;40525;55.926;21.066;2022-12-07T19:54:21;99598.66;;;3.39;100.00
54628;BME280;40525;55.926;21.066;2022-12-07T19:56:50;99599.17;;;3.37;100.00
54628;BME280;40525;55.926;21.066;2022-12-07T19:59:20;99597.96;;;3.33;100.00
54628;BME280;40525;55.926;21.066;2022-12-07T20:01:50;99598.84;;;3.34;100.00
54628;BME280;40525;55.926;21.066;2022-12-07T20:04:19;99593.26;;;3.31;100.00
54628;BME280;40525;55.926;21.066;2022-12-07T20:06:49;99595.31;;;3.35;100.00
54628;BME280;40525;55.926;21.066;2022-12-07T20:09:18;99595.77;;;3.35;100.00
54628;BME280;40525;55.926;21.066;2022-12-07T20:11:45;99601.44;;;3.34;100.00
54628;BME280;40525;55.926;21.066;2022-12-07T20:14:31;99600.52;;;3.35;100.00
54628;BME280;40525;55.926;21.066;2022-12-07T20:16:58;99600.52;;;3.35;100.00
54628;BME280;40525;55.926;21.066;2022-12-07T20:19:25;99604.34;;;3.38;100.00
54628;BME280;40525;55.926;21.066;2022-12-07T20:21:52;99611.73;;;3.37;100.00
54628;BME280;40525;55.926;21.066;2022-12-07T20:24:21;99609.55;;;3.38;100.00
54628;BME280;40525;55.926;21.066;2022-12-07T20:26:50;99616.06;;;3.38;100.00
54628;BME280;40525;55.926;21.066;2022-12-07T20:29:20;99614.25;;;3.40;100.00
54628;BME280;40525;55.926;21.066;2022-12-07T20:31:50;99614.76;;;3.38;100.00
54628;BME280;40525;55.926;21.066;2022-12-07T20:34:18;99614.05;;;3.33;100.00
54628;BME280;40525;55.926;21.066;2022-12-07T20:36:45;99609.69;;;3.33;100.00
54628;BME280;40525;55.926;21.066;2022-12-07T20:39:12;99598.84;;;3.34;100.00
54628;BME280;40525;55.926;21.066;2022-12-07T20:41:39;99603.47;;;3.38;100.00
54628;BME280;40525;55.926;21.066;2022-12-07T20:44:24;99606.77;;;3.43;100.00
54628;BME280;40525;55.926;21.066;2022-12-07T20:46:51;99602.02;;;3.42;100.00
54628;BME280;40525;55.926;21.066;2022-12-07T20:49:18;99603.78;;;3.42;100.00
54628;BME280;40525;55.926;21.066;2022-12-07T20:51:45;99598.62;;;3.40;100.00
54628;BME280;40525;55.926;21.066;2022-12-07T20:54:13;99598.25;;;3.38;100.00
54628;BME280;40525;55.926;21.066;2022-12-07T20:56:39;99598.71;;;3.37;100.00
54628;BME280;40525;55.926;21.066;2022-12-07T20:59:09;99606.44;;;3.40;100.00
54628;BME280;40525;55.926;21.066;2022-12-07T21:01:36;99603.83;;;3.40;100.00
54628;BME280;40525;55.926;21.066;2022-12-07T21:04:03;99600.30;;;3.41;100.00
54628;BME280;40525;55.926;21.066;2022-12-07T21:06:31;99602.41;;;3.43;100.00
54628;BME280;40525;55.926;21.066;2022-12-07T21:08:58;99597.70;;;3.41;100.00
54628;BME280;40525;55.926;21.066;2022-12-07T21:11:27;99598.25;;;3.38;100.00
54628;BME280;40525;55.926;21.066;2022-12-07T21:13:55;99591.02;;;3.34;100.00
54628;BME280;40525;55.926;21.066;2022-12-07T21:16:24;99592.70;;;3.35;100.00
54628;BME280;40525;55.926;21.066;2022-12-07T21:18:56;99593.79;;;3.41;100.00
54628;BME280;40525;55.926;21.066;2022-12-07T21:21:26;99595.89;;;3.43;100.00
54628;BME280;40525;55.926;21.066;2022-12-07T21:23:54;99589.37;;;3.43;100.00
54628;BME280;40525;55.926;21.066;2022-12-07T21:26:22;99592.95;;;3.41;100.00
54628;BME280;40525;55.926;21.066;2022-12-07T21:28:51;99592.61;;;3.38;100.00
54628;BME280;40525;55.926;21.066;2022-12-07T21:31:18;99597.83;;;3.38;100.00
54628;BME280;40525;55.926;21.066;2022-12-07T21:33:46;99591.31;;;3.38;100.00
54628;BME280;40525;55.926;21.066;2022-12-07T21:36:15;99597.83;;;3.38;100.00
54628;BME280;40525;55.926;21.066;2022-12-07T21:38:47;99592.06;;;3.42;100.00
54628;BME280;40525;55.926;21.066;2022-12-07T21:41:25;99594.20;;;3.42;100.00
54628;BME280;40525;55.926;21.066;2022-12-07T21:43:53;99599.08;;;3.40;100.00
54628;BME280;40525;55.926;21.066;2022-12-07T21:46:22;99592.24;;;3.36;100.00
54628;BME280;40525;55.926;21.066;2022-12-07T21:48:55;99590.52;;;3.36;100.00
54628;BME280;40525;55.926;21.066;2022-12-07T21:51:26;99594.34;;;3.38;100.00
54628;BME280;40525;55.926;21.066;2022-12-07T21:53:55;99598.66;;;3.39;100.00
54628;BME280;40525;55.926;21.066;2022-12-07T21:56:26;99590.84;;;3.39;100.00
54628;BME280;40525;55.926;21.066;2022-12-07T21:59:07;99588.70;;;3.38;100.00
54628;BME280;40525;55.926;21.066;2022-12-07T22:01:35;99591.69;;;3.39;100.00
54628;BME280;40525;55.926;21.066;2022-12-07T22:04:07;99590.52;;;3.36;100.00
54628;BME280;40525;55.926;21.066;2022-12-07T22:06:36;99593.55;;;3.36;100.00
54628;BME280;40525;55.926;21.066;2022-12-07T22:09:03;99590.09;;;3.35;100.00
54628;BME280;40525;55.926;21.066;2022-12-07T22:11:31;99581.91;;;3.34;100.00
54628;BME280;40525;55.926;21.066;2022-12-07T22:13:58;99588.70;;;3.38;100.00
54628;BME280;40525;55.926;21.066;2022-12-07T22:16:43;99589.37;;;3.43;100.00
54628;BME280;40525;55.926;21.066;2022-12-07T22:19:10;99587.52;;;3.47;100.00
54628;BME280;40525;55.926;21.066;2022-12-07T22:21:37;99590.58;;;3.46;100.00
54628;BME280;40525;55.926;21.066;2022-12-07T22:24:04;99589.78;;;3.44;100.00
54628;BME280;40525;55.926;21.066;2022-12-07T22:26:31;99595.45;;;3.44;100.00
54628;BME280;40525;55.926;21.066;2022-12-07T22:28:59;99597.36;;;3.39;100.00
54628;BME280;40525;55.926;21.066;2022-12-07T22:31:26;99590.00;;;3.38;100.00
54628;BME280;40525;55.926;21.066;2022-12-07T22:33:53;99590.89;;;3.37;100.00
54628;BME280;40525;55.926;21.066;2022-12-07T22:36:20;99599.92;;;3.40;100.00
54628;BME280;40525;55.926;21.066;2022-12-07T22:38:46;99599.97;;;3.39;100.00
54628;BME280;40525;55.926;21.066;2022-12-07T22:41:26;99598.04;;;3.32;100.00
54628;BME280;40525;55.926;21.066;2022-12-07T22:43:54;99603.55;;;3.23;100.00
54628;BME280;40525;55.926;21.066;2022-12-07T22:46:22;99609.66;;;3.22;100.00
54628;BME280;40525;55.926;21.066;2022-12-07T22:48:49;99605.75;;;3.22;100.00
54628;BME280;40525;55.926;21.066;2022-12-07T22:51:21;99601.34;;;3.24;100.00
54628;BME280;40525;55.926;21.066;2022-12-07T22:54:04;99601.89;;;3.20;100.00
54628;BME280;40525;55.926;21.066;2022-12-07T22:56:34;99601.64;;;3.15;100.00
54628;BME280;40525;55.926;21.066;2022-12-07T22:59:03;99602.14;;;3.12;100.00
54628;BME280;40525;55.926;21.066;2022-12-07T23:01:31;99603.91;;;3.12;100.00
54628;BME280;40525;55.926;21.066;2022-12-07T23:03:57;99603.91;;;3.12;100.00
54628;BME280;40525;55.926;21.066;2022-12-07T23:06:29;99602.77;;;3.07;100.00
54628;BME280;40525;55.926;21.066;2022-12-07T23:08:59;99599.04;;;3.01;100.00
54628;BME280;40525;55.926;21.066;2022-12-07T23:11:29;99606.47;;;3.00;100.00
54628;BME280;40525;55.926;21.066;2022-12-07T23:14:18;99600.72;;;3.04;100.00
54628;BME280;40525;55.926;21.066;2022-12-07T23:16:49;99599.00;;;3.03;100.00
54628;BME280;40525;55.926;21.066;2022-12-07T23:19:15;99602.95;;;3.01;100.00
54628;BME280;40525;55.926;21.066;2022-12-07T23:21:43;99599.04;;;3.01;100.00
54628;BME280;40525;55.926;21.066;2022-12-07T23:24:13;99593.83;;;3.01;100.00
54628;BME280;40525;55.926;21.066;2022-12-07T23:26:41;99592.95;;;3.02;100.00
54628;BME280;40525;55.926;21.066;2022-12-07T23:29:09;99593.74;;;3.04;100.00
54628;BME280;40525;55.926;21.066;2022-12-07T23:31:35;99597.98;;;3.07;100.00
54628;BME280;40525;55.926;21.066;2022-12-07T23:34:02;99603.56;;;3.09;100.00
54628;BME280;40525;55.926;21.066;2022-12-07T23:36:29;99600.88;;;3.11;100.00
54628;BME280;40525;55.926;21.066;2022-12-07T23:38:56;99605.42;;;3.06;100.00
54628;BME280;40525;55.926;21.066;2022-12-07T23:41:26;99605.16;;;3.00;100.00
54628;BME280;40525;55.926;21.066;2022-12-07T23:43:56;99613.53;;;2.97;100.00
54628;BME280;40525;55.926;21.066;2022-12-07T23:46:27;99606.97;;;2.98;100.00
54628;BME280;40525;55.926;21.066;2022-12-07T23:48:56;99610.46;;;2.97;100.00
54628;BME280;40525;55.926;21.066;2022-12-07T23:51:25;99608.36;;;2.95;100.00
54628;BME280;40525;55.926;21.066;2022-12-07T23:53:52;99605.42;;;2.92;100.00
54628;BME280;40525;55.926;21.066;2022-12-07T23:56:21;99605.96;;;2.89;100.00
54628;BME280;40525;55.926;21.066;2022-12-07T23:58:50;99608.15;;;2.88;100.00
